Time;durP1;ratioP1;P1;durP2;ratioP2;P2;SDS_P1;SDS_P2;PMS_P1;PMS_P2;Temp;Humidity;BMP_temperature;BMP_pressure;BME280_temperature;BME280_humidity;BME280_pressure;Samples;Min_cycle;Max_cycle;Signal;HPM_P1;HPM_P2
2021/10/03 00:00:22;;;;;;;3.40;3.30;;;21.50;99.90;;;;;;5075190;28;20477;-73
2021/10/03 00:02:52;;;;;;;4.50;4.20;;;21.60;99.90;;;;;;5075149;28;20025;-73
2021/10/03 00:05:21;;;;;;;3.75;3.63;;;21.80;99.90;;;;;;5076499;28;20059;-73
2021/10/03 00:07:51;;;;;;;5.45;3.83;;;21.80;99.90;;;;;;5075370;28;20056;-73
2021/10/03 00:10:20;;;;;;;3.33;3.13;;;21.60;99.90;;;;;;5075142;28;20039;-72
2021/10/03 00:12:48;;;;;;;3.17;2.97;;;21.60;99.90;;;;;;5076242;28;20028;-72
2021/10/03 00:15:18;;;;;;;3.58;3.38;;;21.70;99.90;;;;;;5074769;28;20036;-72
2021/10/03 00:17:48;;;;;;;3.33;3.15;;;21.80;99.90;;;;;;5075844;28;20024;-72
2021/10/03 00:20:16;;;;;;;3.20;2.90;;;21.90;99.90;;;;;;5074841;28;20046;-73
2021/10/03 00:22:44;;;;;;;2.95;2.75;;;22.30;99.90;;;;;;5076140;28;20028;-71
2021/10/03 00:25:15;;;;;;;3.05;2.90;;;22.30;99.90;;;;;;5074677;28;20044;-72
2021/10/03 00:27:44;;;;;;;2.90;2.70;;;22.00;99.90;;;;;;5075907;28;20105;-72
2021/10/03 00:30:17;;;;;;;3.08;2.88;;;22.20;99.90;;;;;;5076106;28;20017;-73
2021/10/03 00:32:45;;;;;;;3.05;2.88;;;22.30;99.90;;;;;;5076012;28;20501;-73
2021/10/03 00:35:13;;;;;;;2.78;2.58;;;22.50;99.90;;;;;;5075900;28;20017;-73
2021/10/03 00:37:41;;;;;;;3.15;2.95;;;22.70;99.90;;;;;;5075691;28;20028;-73
2021/10/03 00:40:09;;;;;;;2.90;2.80;;;22.70;99.90;;;;;;5074399;28;20021;-73
2021/10/03 00:42:38;;;;;;;2.63;2.50;;;23.10;99.90;;;;;;5075711;28;20024;-74
2021/10/03 00:45:07;;;;;;;3.05;2.85;;;23.10;99.90;;;;;;5074323;28;20021;-73
2021/10/03 00:47:34;;;;;;;2.97;2.60;;;22.70;99.80;;;;;;5075736;28;20021;-73
2021/10/03 00:50:02;;;;;;;2.75;2.50;;;23.00;99.10;;;;;;5074264;28;20035;-74
2021/10/03 00:52:29;;;;;;;2.90;2.70;;;23.00;98.60;;;;;;5075494;28;20039;-72
2021/10/03 00:54:57;;;;;;;3.03;2.72;;;23.20;99.50;;;;;;5075531;28;20028;-74
2021/10/03 00:57:24;;;;;;;2.50;2.40;;;23.60;99.20;;;;;;5073876;28;20073;-73
2021/10/03 00:59:53;;;;;;;3.63;2.75;;;23.80;96.90;;;;;;5075193;28;20025;-73
2021/10/03 01:02:20;;;;;;;2.47;2.35;;;23.90;96.80;;;;;;5075163;28;20427;-73
2021/10/03 01:04:48;;;;;;;2.95;2.72;;;23.50;96.60;;;;;;5074076;28;20025;-73
2021/10/03 01:07:15;;;;;;;2.45;2.35;;;23.40;96.50;;;;;;5073753;28;20552;-73
2021/10/03 01:09:43;;;;;;;2.90;2.70;;;23.70;97.40;;;;;;5075467;28;20021;-73
2021/10/03 01:12:12;;;;;;;2.92;2.50;;;23.90;95.80;;;;;;5073785;28;20021;-72
2021/10/03 01:14:40;;;;;;;2.90;2.80;;;23.70;95.60;;;;;;5074550;28;20103;-72
2021/10/03 01:17:07;;;;;;;2.80;2.60;;;23.50;95.20;;;;;;5074328;28;20049;-72
2021/10/03 01:19:36;;;;;;;2.80;2.55;;;23.30;96.10;;;;;;5073215;28;20098;-72
2021/10/03 01:22:07;;;;;;;2.58;2.20;;;23.70;95.50;;;;;;5074532;28;20023;-71
2021/10/03 01:24:35;;;;;;;2.65;2.45;;;23.70;95.90;;;;;;5072910;28;20516;-72
2021/10/03 01:27:03;;;;;;;2.45;2.25;;;23.60;95.50;;;;;;5074343;28;20107;-72
2021/10/03 01:29:32;;;;;;;3.85;2.35;;;23.40;95.90;;;;;;5074299;28;20142;-72
2021/10/03 01:32:00;;;;;;;2.55;2.30;;;24.00;95.80;;;;;;5074180;28;20025;-72
2021/10/03 01:34:27;;;;;;;2.38;2.28;;;24.30;94.90;;;;;;5074149;28;20078;-72
2021/10/03 01:36:54;;;;;;;2.97;2.25;;;24.80;94.70;;;;;;5074098;28;20087;-72
2021/10/03 01:39:22;;;;;;;2.40;2.30;;;24.40;95.20;;;;;;5072721;28;20024;-73
2021/10/03 01:41:49;;;;;;;2.63;2.50;;;24.20;96.00;;;;;;5074324;28;20020;-72
2021/10/03 01:44:17;;;;;;;2.50;2.40;;;24.20;95.30;;;;;;5074102;28;20025;-73
2021/10/03 01:46:44;;;;;;;2.65;2.45;;;24.10;95.10;;;;;;5073976;28;20385;-72
2021/10/03 01:49:12;;;;;;;2.65;2.50;;;23.60;95.70;;;;;;5073917;28;20025;-72
2021/10/03 01:51:39;;;;;;;2.65;2.45;;;23.10;96.30;;;;;;5073882;28;20413;-72
2021/10/03 01:54:07;;;;;;;2.50;2.40;;;23.30;97.20;;;;;;5073896;28;20048;-72
2021/10/03 01:56:36;;;;;;;2.22;2.13;;;23.30;96.90;;;;;;5073837;28;20142;-72
2021/10/03 01:59:05;;;;;;;4.13;1.90;;;23.70;96.70;;;;;;5073668;28;20386;-72
2021/10/03 02:01:45;;;;;;;2.05;1.95;;;24.30;95.90;;;;;;5074070;28;20019;-72
2021/10/03 02:04:21;;;;;;;2.50;2.40;;;24.50;94.80;;;;;;5073783;28;20031;-72
2021/10/03 02:06:51;;;;;;;2.60;2.40;;;24.30;96.00;;;;;;5072271;28;20032;-72
2021/10/03 02:09:22;;;;;;;2.65;2.45;;;24.40;96.40;;;;;;5073515;28;20025;-72
2021/10/03 02:11:56;;;;;;;2.53;2.40;;;25.20;95.30;;;;;;5073603;28;20021;-72
2021/10/03 02:14:27;;;;;;;2.25;2.13;;;25.30;95.10;;;;;;5073471;28;20029;-72
2021/10/03 02:17:00;;;;;;;2.72;2.53;;;25.50;95.40;;;;;;5073163;28;20044;-73
2021/10/03 02:19:30;;;;;;;2.88;2.72;;;26.00;94.60;;;;;;5073421;28;20016;-72
2021/10/03 02:21:58;;;;;;;2.83;2.57;;;26.30;94.60;;;;;;5073396;28;20491;-73
2021/10/03 02:24:25;;;;;;;2.65;2.45;;;26.80;94.30;;;;;;5073402;28;20253;-72
2021/10/03 02:26:52;;;;;;;3.80;3.53;;;27.00;91.50;;;;;;5073581;28;20056;-72
2021/10/03 02:29:20;;;;;;;12.02;10.52;;;26.70;91.60;;;;;;5073217;28;20036;-71
2021/10/03 02:31:47;;;;;;;6.30;5.70;;;26.70;92.30;;;;;;5073176;28;20047;-71
2021/10/03 02:34:15;;;;;;;4.90;4.50;;;26.70;90.10;;;;;;5071798;28;20109;-72
2021/10/03 02:36:42;;;;;;;3.03;2.72;;;26.50;92.70;;;;;;5073040;28;20366;-72
2021/10/03 02:39:10;;;;;;;2.72;2.50;;;26.60;90.60;;;;;;5071567;28;20074;-72
2021/10/03 02:41:37;;;;;;;3.03;2.50;;;26.70;90.80;;;;;;5072914;28;20044;-71
2021/10/03 02:44:05;;;;;;;2.47;2.38;;;26.70;91.70;;;;;;5071638;28;20016;-72
2021/10/03 02:46:34;;;;;;;2.40;2.30;;;26.00;90.60;;;;;;5073133;28;20401;-72
2021/10/03 02:49:01;;;;;;;2.80;2.60;;;25.50;91.00;;;;;;5073491;28;20425;-72
2021/10/03 02:51:30;;;;;;;2.80;2.60;;;25.00;91.60;;;;;;5071907;28;20020;-73
2021/10/03 02:53:58;;;;;;;2.70;2.50;;;25.20;91.60;;;;;;5073156;28;20020;-74
2021/10/03 02:56:28;;;;;;;2.78;2.50;;;25.80;90.90;;;;;;5073189;28;20435;-75
2021/10/03 02:58:56;;;;;;;2.28;2.17;;;25.80;90.60;;;;;;5071634;28;20380;-73
2021/10/03 03:01:23;;;;;;;2.65;2.45;;;26.00;89.90;;;;;;5071566;28;20021;-73
2021/10/03 03:03:51;;;;;;;3.60;2.80;;;25.80;89.90;;;;;;5072958;28;20017;-73
2021/10/03 03:06:18;;;;;;;2.70;2.53;;;26.10;89.60;;;;;;5073076;28;20081;-71
2021/10/03 03:08:46;;;;;;;3.33;2.70;;;25.60;89.00;;;;;;5073214;28;20021;-72
2021/10/03 03:11:14;;;;;;;2.50;2.40;;;25.60;90.20;;;;;;5072978;28;20028;-73
2021/10/03 03:13:42;;;;;;;2.97;2.78;;;25.60;89.80;;;;;;5072822;28;20381;-71
2021/10/03 03:16:10;;;;;;;2.60;2.50;;;25.70;90.10;;;;;;5072544;28;20036;-72
2021/10/03 03:18:39;;;;;;;2.33;2.22;;;25.80;91.10;;;;;;5072665;28;20032;-72
2021/10/03 03:21:06;;;;;;;2.65;2.50;;;25.90;91.50;;;;;;5072731;28;20481;-72
2021/10/03 03:23:33;;;;;;;2.47;2.38;;;25.80;90.70;;;;;;5072747;28;20016;-72
2021/10/03 03:26:01;;;;;;;2.60;2.50;;;25.70;89.40;;;;;;5071152;28;20021;-73
2021/10/03 03:28:28;;;;;;;3.00;2.80;;;26.00;90.60;;;;;;5072636;28;20029;-72
2021/10/03 03:30:55;;;;;;;2.42;2.30;;;26.30;89.80;;;;;;5072754;28;20031;-74
2021/10/03 03:33:23;;;;;;;2.55;2.35;;;26.50;90.40;;;;;;5072811;28;20474;-73
2021/10/03 03:35:50;;;;;;;2.50;2.40;;;27.10;90.30;;;;;;5071378;28;20089;-73
2021/10/03 03:38:18;;;;;;;2.70;2.55;;;27.30;87.20;;;;;;5072572;28;20052;-73
2021/10/03 03:40:45;;;;;;;3.03;2.50;;;26.80;86.70;;;;;;5072676;28;20423;-73
2021/10/03 03:43:12;;;;;;;2.63;2.53;;;26.60;87.00;;;;;;5071540;28;20027;-73
2021/10/03 03:45:40;;;;;;;2.53;2.42;;;26.20;88.20;;;;;;5071352;28;20416;-73
2021/10/03 03:48:08;;;;;;;2.53;2.42;;;25.80;89.00;;;;;;5072626;28;20034;-73
2021/10/03 03:50:35;;;;;;;2.35;2.25;;;25.90;88.50;;;;;;5071202;28;20478;-73
2021/10/03 03:53:02;;;;;;;2.67;2.42;;;26.10;89.30;;;;;;5072654;28;20051;-73
2021/10/03 03:55:30;;;;;;;2.50;2.40;;;26.20;89.50;;;;;;5072502;28;20081;-73
2021/10/03 03:57:57;;;;;;;2.60;2.50;;;26.60;90.00;;;;;;5071061;28;20036;-74
2021/10/03 04:00:24;;;;;;;2.83;2.38;;;27.00;88.80;;;;;;5071253;28;20017;-74
2021/10/03 04:02:52;;;;;;;2.70;2.50;;;27.20;88.50;;;;;;5072567;28;20441;-73
2021/10/03 04:05:19;;;;;;;2.63;2.53;;;27.10;88.00;;;;;;5072231;28;20048;-72
2021/10/03 04:07:46;;;;;;;2.53;2.33;;;26.90;88.40;;;;;;5071090;28;20075;-73
2021/10/03 04:10:14;;;;;;;3.00;2.90;;;26.90;87.30;;;;;;5071044;28;20162;-73
2021/10/03 04:12:41;;;;;;;2.95;2.80;;;26.50;87.20;;;;;;5072398;28;20031;-72
2021/10/03 04:15:09;;;;;;;2.70;2.50;;;25.80;88.10;;;;;;5072130;28;20035;-73
2021/10/03 04:17:37;;;;;;;2.63;2.42;;;25.60;89.50;;;;;;5072451;28;20484;-72
2021/10/03 04:20:06;;;;;;;2.70;2.50;;;25.70;89.40;;;;;;5071055;28;20056;-72
2021/10/03 04:22:34;;;;;;;2.47;2.38;;;25.80;90.40;;;;;;5070990;28;20024;-73
2021/10/03 04:25:02;;;;;;;2.47;2.38;;;26.40;88.90;;;;;;5070977;28;20029;-72
2021/10/03 04:27:30;;;;;;;3.13;2.95;;;26.70;89.80;;;;;;5072231;28;20021;-73
2021/10/03 04:29:57;;;;;;;2.90;2.80;;;27.20;90.20;;;;;;5072230;28;20044;-72
2021/10/03 04:32:24;;;;;;;3.33;3.13;;;27.10;87.70;;;;;;5070726;28;20029;-72
2021/10/03 04:34:52;;;;;;;2.70;2.60;;;27.30;88.50;;;;;;5071099;28;20094;-72
2021/10/03 04:37:19;;;;;;;2.65;2.55;;;27.10;89.10;;;;;;5072159;28;20052;-72
2021/10/03 04:39:46;;;;;;;2.80;2.67;;;;;;;;;;5074569;28;20047;-72
2021/10/03 04:42:13;;;;;;;3.10;2.80;;;;;;;;;;5075682;28;20021;-72
2021/10/03 04:44:41;;;;;;;3.22;3.10;;;;;;;;;;5075697;28;20039;-72
2021/10/03 04:47:08;;;;;;;3.38;3.17;;;;;;;;;;5074310;28;20051;-73
2021/10/03 04:49:38;;;;;;;3.03;2.83;;;;;;;;;;5076045;28;20028;-73
2021/10/03 04:52:05;;;;;;;2.90;2.70;;;;;;;;;;5075605;28;20504;-73
2021/10/03 04:54:33;;;;;;;2.63;2.50;;;;;;;;;;5075835;28;20016;-74
2021/10/03 04:57:00;;;;;;;2.80;2.58;;;;;;;;;;5075910;28;20052;-72
2021/10/03 04:59:28;;;;;;;2.50;2.40;;;;;;;;;;5075964;28;20025;-73
2021/10/03 05:01:55;;;;;;;3.72;3.20;;;;;;;;;;5075472;28;20376;-75
2021/10/03 05:04:22;;;;;;;3.97;3.58;;;;;;;;;;5075367;28;20488;-72
2021/10/03 05:06:50;;;;;;;4.30;3.50;;;;;;;;;;5075327;28;20108;-73
2021/10/03 05:09:20;;;;;;;3.90;3.60;;;;;;;;;;5075292;28;20456;-73
2021/10/03 05:11:46;;;;;;;;;;;;;;;;;;5074349;28;20040;-74
2021/10/03 05:14:14;;;;;;;3.17;2.88;;;;;;;;;;5075235;28;19904;-72
2021/10/03 05:16:41;;;;;;;4.97;3.13;;;;;;;;;;5075227;28;20508;-73
2021/10/03 05:19:08;;;;;;;4.85;3.38;;;;;;;;;;5073740;28;20453;-73
2021/10/03 05:21:38;;;;;;;3.00;2.80;;;;;;;;;;5075172;28;20074;-73
2021/10/03 05:24:06;;;;;;;3.75;3.42;;;;;;;;;;5075287;28;20593;-73
2021/10/03 05:26:33;;;;;;;3.55;3.30;;;;;;;;;;5074946;28;20359;-74
2021/10/03 05:29:00;;;;;;;3.90;3.42;;;;;;;;;;5074908;28;20013;-75
2021/10/03 05:31:27;;;;;;;4.07;3.22;;;;;;;;;;5074772;28;20081;-72
2021/10/03 05:33:55;;;;;;;7.25;3.60;;;;;;;;;;5074680;28;20028;-71
2021/10/03 05:36:22;;;;;;;3.45;3.20;;;;;;;;;;5074771;28;20044;-73
2021/10/03 05:38:50;;;;;;;5.80;3.50;;;;;;;;;;5074647;28;20031;-73
2021/10/03 05:41:17;;;;;;;4.20;3.80;;;;;;;;;;5073340;28;20112;-73
2021/10/03 05:43:44;;;;;;;4.15;3.75;;;;;;;;;;5074433;28;20469;-72
2021/10/03 05:46:11;;;;;;;3.75;3.40;;;;;;;;;;5073204;28;20020;-73
2021/10/03 05:48:39;;;;;;;4.20;3.80;;;;;;;;;;5074320;28;20024;-72
2021/10/03 05:51:07;;;;;;;5.90;3.35;;;;;;;;;;5072831;28;20516;-72
2021/10/03 05:53:34;;;;;;;5.50;3.53;;;;;;;;;;5072987;28;20119;-73
2021/10/03 05:56:02;;;;;;;3.30;3.00;;;;;;;;;;5072980;28;20024;-72
2021/10/03 05:58:29;;;;;;;3.55;2.92;;;;;;;;;;5074272;28;20424;-72
2021/10/03 06:00:56;;;;;;;4.68;2.83;;;;;;;;;;5074180;28;20118;-72
2021/10/03 06:03:23;;;;;;;4.20;3.40;;;;;;;;;;5072922;28;20028;-72
2021/10/03 06:05:51;;;;;;;3.42;3.20;;;;;;;;;;5072795;28;20044;-72
2021/10/03 06:08:18;;;;;;;5.57;3.72;;;;;;;;;;5074091;28;20545;-73
2021/10/03 06:10:45;;;;;;;4.70;3.42;;;;;;;;;;5074115;28;20081;-72
2021/10/03 06:13:16;;;;;;;6.22;3.63;;;;;;;;;;5074044;28;20024;-73
2021/10/03 06:15:43;;;;;;;3.97;2.95;;;;;;;;;;5073728;28;20044;-73
2021/10/03 06:18:13;;;;;;;3.50;3.20;;;;;;;;;;5072450;28;20119;-73
2021/10/03 06:20:40;;;;;;;;;;;;;;;;;;5073147;28;20021;-73
2021/10/03 06:23:07;;;;;;;4.05;3.30;;;;;;;;;;5072480;28;19904;-72
2021/10/03 06:25:34;;;;;;;3.47;3.05;;;;;;;;;;5072316;28;20020;-73
2021/10/03 06:28:02;;;;;;;5.38;3.30;;;;;;;;;;5072247;28;20025;-73
2021/10/03 06:30:29;;;;;;;4.88;3.55;;;;;;;;;;5073608;28;20032;-73
2021/10/03 06:32:57;;;;;;;3.53;3.33;;;;;;;;;;5073548;28;20430;-72
2021/10/03 06:35:25;;;;;;;4.00;3.60;;;;;;;;;;5072212;28;20028;-72
2021/10/03 06:37:52;;;;;;;5.22;3.85;;;;;;;;;;5072734;28;20554;-72
2021/10/03 06:40:19;;;;;;;6.18;3.47;;;21.30;99.90;;;;;;5072455;28;20035;-73
2021/10/03 06:42:46;;;;;;;3.65;3.35;;;21.30;99.90;;;;;;5073403;28;20028;-73
2021/10/03 06:45:14;;;;;;;3.97;3.55;;;21.20;99.90;;;;;;5073301;28;20107;-72
2021/10/03 06:47:41;;;;;;;4.55;4.10;;;21.20;99.90;;;;;;5071897;28;20024;-71
2021/10/03 06:50:11;;;;;;;4.00;3.70;;;21.10;99.90;;;;;;5073197;28;20020;-71
2021/10/03 06:52:38;;;;;;;4.47;3.60;;;21.20;99.90;;;;;;5073242;28;20028;-72
2021/10/03 06:55:07;;;;;;;5.03;3.67;;;21.10;99.90;;;;;;5071855;28;20086;-72
2021/10/03 06:57:35;;;;;;;4.40;4.10;;;21.00;99.90;;;;;;5073226;28;20016;-71
2021/10/03 07:00:04;;;;;;;6.13;4.50;;;21.40;99.90;;;;;;5073055;28;20032;-72
2021/10/03 07:02:32;;;;;;;4.10;3.42;;;21.80;99.90;;;;;;5072502;28;20044;-71
2021/10/03 07:04:59;;;;;;;4.45;3.72;;;21.60;99.90;;;;;;5071905;28;20021;-71
2021/10/03 07:07:28;;;;;;;4.07;3.67;;;21.40;99.90;;;;;;5073210;28;20029;-73
2021/10/03 07:09:55;;;;;;;3.72;3.42;;;21.30;99.90;;;;;;5073149;28;20023;-73
2021/10/03 07:12:23;;;;;;;3.70;3.35;;;21.10;99.90;;;;;;5073097;28;20048;-73
2021/10/03 07:14:50;;;;;;;4.72;3.65;;;21.10;99.90;;;;;;5073140;28;20489;-71
2021/10/03 07:17:18;;;;;;;4.57;3.70;;;21.00;99.90;;;;;;5071470;28;20052;-73
2021/10/03 07:19:45;;;;;;;4.85;3.35;;;20.90;99.90;;;;;;5071533;28;20025;-73
2021/10/03 07:22:13;;;;;;;4.50;3.70;;;20.70;99.90;;;;;;5072953;28;20020;-72
2021/10/03 07:24:41;;;;;;;3.72;3.40;;;20.40;99.90;;;;;;5072908;28;20477;-72
2021/10/03 07:27:08;;;;;;;3.67;3.17;;;20.20;99.90;;;;;;5071502;28;20111;-73
2021/10/03 07:29:36;;;;;;;3.60;3.10;;;20.10;99.90;;;;;;5072916;28;20063;-72
2021/10/03 07:32:06;;;;;;;3.53;3.35;;;20.00;99.90;;;;;;5072871;28;20100;-74
2021/10/03 07:34:35;;;;;;;4.30;3.88;;;19.90;99.90;;;;;;5072508;28;20572;-72
2021/10/03 07:37:03;;;;;;;4.32;3.63;;;19.90;99.90;;;;;;5072800;28;20028;-72
2021/10/03 07:39:34;;;;;;;4.05;3.65;;;19.90;99.90;;;;;;5072776;28;20492;-72
2021/10/03 07:42:01;;;;;;;;;;;19.80;99.90;;;;;;5071927;28;20027;-72
2021/10/03 07:44:29;;;;;;;4.13;3.80;;;19.80;99.90;;;;;;5072736;28;20372;-72
2021/10/03 07:46:56;;;;;;;5.97;4.65;;;19.70;99.90;;;;;;5072955;28;20025;-72
2021/10/03 07:49:24;;;;;;;5.13;4.38;;;19.70;99.90;;;;;;5072561;28;20029;-72
2021/10/03 07:51:51;;;;;;;4.50;4.10;;;19.70;99.90;;;;;;5072651;28;20050;-72
2021/10/03 07:54:18;;;;;;;3.60;3.15;;;19.60;99.90;;;;;;5072651;28;20024;-72
2021/10/03 07:56:46;;;;;;;3.90;3.60;;;19.60;99.90;;;;;;5071202;28;20025;-71
2021/10/03 07:59:13;;;;;;;4.43;3.90;;;19.50;99.90;;;;;;5072859;28;20023;-71
2021/10/03 08:01:41;;;;;;;5.07;3.70;;;19.40;99.90;;;;;;5071336;28;20094;-71
2021/10/03 08:04:08;;;;;;;6.30;3.38;;;19.40;99.90;;;;;;5072442;28;20508;-71
2021/10/03 08:06:35;;;;;;;4.50;4.10;;;19.40;99.90;;;;;;5072420;28;20023;-71
2021/10/03 08:09:03;;;;;;;4.05;3.78;;;19.40;99.90;;;;;;5072659;28;20016;-71
2021/10/03 08:11:30;;;;;;;4.18;3.78;;;19.40;99.90;;;;;;5071112;28;20389;-72
2021/10/03 08:13:57;;;;;;;4.28;3.85;;;19.30;99.90;;;;;;5075427;28;20020;-72
2021/10/03 08:16:25;;;;;;;4.82;3.90;;;19.30;99.90;;;;;;5076036;28;20040;-72
2021/10/03 08:18:57;;;;;;;5.13;3.90;;;19.40;99.90;;;;;;5076055;28;20083;-73
2021/10/03 08:21:26;;;;;;;5.45;4.95;;;19.30;99.90;;;;;;5076237;28;20021;-72
2021/10/03 08:23:54;;;;;;;6.55;5.45;;;19.30;99.90;;;;;;5075145;28;20032;-75
2021/10/03 08:26:22;;;;;;;6.57;5.28;;;19.30;99.90;;;;;;5076098;28;20418;-78
2021/10/03 08:28:49;;;;;;;7.15;4.80;;;19.30;99.90;;;;;;5074751;28;20028;-74
2021/10/03 08:31:17;;;;;;;5.53;4.28;;;19.30;99.90;;;;;;5074559;28;20127;-74
2021/10/03 08:33:44;;;;;;;4.82;4.30;;;19.30;99.90;;;;;;5075925;28;20028;-74
2021/10/03 08:36:11;;;;;;;5.53;4.25;;;19.20;99.90;;;;;;5075906;28;20056;-74
2021/10/03 08:38:39;;;;;;;5.82;4.60;;;19.20;99.90;;;;;;5075956;28;20056;-73
2021/10/03 08:41:06;;;;;;;5.78;5.20;;;19.20;99.90;;;;;;5075869;28;20086;-72
2021/10/03 08:43:33;;;;;;;5.72;4.53;;;19.10;99.90;;;;;;5075710;28;20103;-72
2021/10/03 08:46:01;;;;;;;6.55;4.80;;;19.20;99.90;;;;;;5075664;28;20032;-72
2021/10/03 08:48:29;;;;;;;7.88;4.95;;;19.10;99.90;;;;;;5074740;28;20024;-73
2021/10/03 08:50:59;;;;;;;5.43;4.93;;;19.10;99.90;;;;;;5075560;28;20025;-71
2021/10/03 08:53:27;;;;;;;5.28;3.97;;;19.10;99.90;;;;;;5075969;28;20119;-72
2021/10/03 08:55:56;;;;;;;6.63;4.20;;;19.10;99.90;;;;;;5075111;28;20430;-73
2021/10/03 08:58:25;;;;;;;4.93;4.40;;;19.10;99.90;;;;;;5074107;28;20025;-73
2021/10/03 09:00:53;;;;;;;4.80;4.40;;;19.00;99.90;;;;;;5075467;28;20020;-72
2021/10/03 09:03:21;;;;;;;6.25;4.60;;;19.00;99.90;;;;;;5073917;28;20024;-73
2021/10/03 09:05:55;;;;;;;6.00;5.00;;;19.10;99.90;;;;;;5075351;28;20017;-73
2021/10/03 09:08:23;;;;;;;7.40;4.80;;;19.00;99.90;;;;;;5075684;28;20036;-74
2021/10/03 09:10:57;;;;;;;6.85;5.07;;;19.00;99.90;;;;;;5074051;28;20396;-73
2021/10/03 09:13:51;;;;;;;5.00;4.50;;;18.90;99.90;;;;;;5073965;28;20496;-73
2021/10/03 09:16:26;;;;;;;4.80;4.40;;;18.90;99.90;;;;;;5074911;28;20045;-74
2021/10/03 09:18:56;;;;;;;6.30;4.85;;;18.80;99.90;;;;;;5073734;28;20037;-73
2021/10/03 09:21:34;;;;;;;5.13;4.50;;;18.80;99.90;;;;;;5075109;28;20562;-73
2021/10/03 09:24:02;;;;;;;7.50;4.97;;;18.80;99.90;;;;;;5073074;28;20496;-73
2021/10/03 09:26:30;;;;;;;7.93;5.45;;;18.70;99.90;;;;;;5073607;28;20537;-74
2021/10/03 09:28:58;;;;;;;6.32;5.72;;;18.70;99.90;;;;;;5073457;28;20027;-73
2021/10/03 09:31:26;;;;;;;8.93;6.00;;;18.70;99.90;;;;;;5073497;28;20163;-73
2021/10/03 09:33:58;;;;;;;6.18;5.57;;;18.70;99.90;;;;;;5074791;28;20474;-74
2021/10/03 09:36:34;;;;;;;5.65;4.95;;;18.60;99.90;;;;;;5074680;28;20035;-73
2021/10/03 09:39:08;;;;;;;7.05;5.88;;;18.60;99.90;;;;;;5074635;28;20025;-73
2021/10/03 09:41:43;;;;;;;7.57;5.72;;;18.60;99.90;;;;;;5073344;28;20445;-72
2021/10/03 09:44:15;;;;;;;7.22;5.57;;;18.60;99.90;;;;;;5074683;28;20090;-74
2021/10/03 09:46:44;;;;;;;7.32;5.70;;;18.60;99.90;;;;;;5074586;28;20560;-74
2021/10/03 09:49:18;;;;;;;6.32;5.63;;;18.60;99.90;;;;;;5074521;28;20029;-73
2021/10/03 09:51:48;;;;;;;8.13;6.38;;;18.50;99.90;;;;;;5073006;28;20020;-73
2021/10/03 09:54:18;;;;;;;7.10;6.40;;;18.50;99.90;;;;;;5074393;28;20025;-73
2021/10/03 09:56:46;;;;;;;6.25;5.65;;;18.40;99.90;;;;;;5074355;28;20356;-73
2021/10/03 09:59:13;;;;;;;7.82;6.13;;;18.30;99.90;;;;;;5074300;28;20017;-73
2021/10/03 10:01:46;;;;;;;7.15;6.13;;;18.20;99.90;;;;;;5073096;28;20056;-73
2021/10/03 10:04:18;;;;;;;10.88;7.47;;;18.20;99.90;;;;;;5074130;28;20426;-73
2021/10/03 10:06:52;;;;;;;9.13;6.80;;;18.20;99.90;;;;;;5072784;28;20500;-74
2021/10/03 10:09:24;;;;;;;6.95;6.35;;;18.10;99.90;;;;;;5072688;28;20492;-72
2021/10/03 10:12:07;;;;;;;9.02;7.03;;;18.10;99.90;;;;;;5072775;28;20424;-73
2021/10/03 10:14:45;;;;;;;8.52;7.18;;;18.10;99.90;;;;;;5074002;28;20100;-73
2021/10/03 10:17:32;;;;;;;7.78;7.15;;;18.00;99.90;;;;;;5073188;28;20048;-73
2021/10/03 10:20:01;;;;;;;8.13;7.30;;;18.00;99.90;;;;;;5072593;28;20392;-73
2021/10/03 10:22:35;;;;;;;7.75;7.00;;;18.00;99.90;;;;;;5073825;28;20438;-73
2021/10/03 10:25:16;;;;;;;8.75;7.50;;;18.00;99.90;;;;;;5073797;28;20440;-73
2021/10/03 10:27:48;;;;;;;8.23;7.53;;;17.90;99.90;;;;;;5073801;28;20077;-73
2021/10/03 10:30:16;;;;;;;10.27;7.50;;;18.00;99.90;;;;;;5073675;28;20539;-73
2021/10/03 10:33:01;;;;;;;8.65;7.78;;;18.00;99.90;;;;;;5073677;28;20103;-74
2021/10/03 10:35:30;;;;;;;9.63;7.55;;;17.80;99.90;;;;;;5073259;28;20032;-73
2021/10/03 10:37:59;;;;;;;8.52;7.45;;;17.90;99.90;;;;;;5072896;28;20024;-74
2021/10/03 10:40:32;;;;;;;7.78;7.07;;;17.90;99.90;;;;;;5072206;28;20029;-73
2021/10/03 10:43:08;;;;;;;7.80;7.10;;;17.90;99.90;;;;;;5073480;28;20024;-73
2021/10/03 10:45:37;;;;;;;8.60;7.72;;;17.90;99.90;;;;;;5073346;28;20017;-73
2021/10/03 10:48:10;;;;;;;8.57;7.80;;;17.90;99.90;;;;;;5073390;28;20469;-73
2021/10/03 10:51:01;;;;;;;8.57;7.75;;;17.80;99.90;;;;;;5071990;28;20028;-73
2021/10/03 10:53:34;;;;;;;8.48;7.70;;;17.90;99.90;;;;;;5071765;28;20028;-73
2021/10/03 10:56:26;;;;;;;8.32;7.53;;;17.90;99.90;;;;;;5072942;28;20033;-73
2021/10/03 10:58:54;;;;;;;7.57;7.05;;;17.90;99.90;;;;;;5072056;28;20416;-73
2021/10/03 11:01:40;;;;;;;7.72;7.00;;;17.90;99.90;;;;;;5073519;28;20020;-72
2021/10/03 11:04:27;;;;;;;7.60;7.00;;;17.80;99.90;;;;;;5071742;28;20481;-72
2021/10/03 11:06:57;;;;;;;8.80;7.18;;;17.90;99.90;;;;;;5073102;28;20013;-72
2021/10/03 11:09:25;;;;;;;8.27;7.50;;;17.90;99.90;;;;;;5071689;28;20451;-72
2021/10/03 11:11:56;;;;;;;8.07;7.30;;;17.90;99.90;;;;;;5071700;28;20489;-72
2021/10/03 11:14:26;;;;;;;8.18;7.43;;;18.00;99.90;;;;;;5071702;28;20104;-72
2021/10/03 11:17:00;;;;;;;9.10;7.30;;;18.00;99.90;;;;;;5072671;28;20493;-73
2021/10/03 11:19:43;;;;;;;7.80;7.00;;;18.00;99.90;;;;;;5072919;28;20392;-73
2021/10/03 11:22:18;;;;;;;9.52;7.40;;;18.00;99.90;;;;;;5072895;28;20043;-73
2021/10/03 11:24:52;;;;;;;8.90;8.13;;;18.00;99.90;;;;;;5071605;28;20024;-72
2021/10/03 11:27:30;;;;;;;8.32;7.55;;;17.90;99.90;;;;;;5072911;28;20055;-73
2021/10/03 11:29:59;;;;;;;6.90;6.40;;;18.00;99.90;;;;;;5072921;28;20089;-73
2021/10/03 11:32:32;;;;;;;6.47;5.97;;;18.00;99.90;;;;;;5072847;28;20485;-73
2021/10/03 11:35:05;;;;;;;7.28;6.78;;;18.00;99.90;;;;;;5071569;28;20508;-73
2021/10/03 11:37:34;;;;;;;7.00;6.20;;;18.00;99.90;;;;;;5072844;28;20422;-73
2021/10/03 11:40:13;;;;;;;7.20;6.60;;;18.00;99.90;;;;;;5072726;28;20066;-73
2021/10/03 11:42:55;;;;;;;7.30;6.32;;;18.10;99.90;;;;;;5073056;28;20165;-73
2021/10/03 11:45:27;;;;;;;6.97;6.32;;;18.10;99.90;;;;;;5072759;28;20506;-73
2021/10/03 11:47:56;;;;;;;7.10;6.40;;;18.10;99.90;;;;;;5074062;28;20029;-73
2021/10/03 11:50:50;;;;;;;7.30;6.65;;;18.10;99.90;;;;;;5076719;28;20043;-73
2021/10/03 11:53:27;;;;;;;6.25;5.82;;;18.10;99.90;;;;;;5075452;28;20020;-73
2021/10/03 11:56:09;;;;;;;6.57;5.78;;;18.10;99.90;;;;;;5076770;28;20388;-73
2021/10/03 11:58:41;;;;;;;5.70;5.22;;;18.00;99.90;;;;;;5076571;28;20028;-74
2021/10/03 12:01:09;;;;;;;5.90;5.50;;;18.10;99.90;;;;;;5076625;28;20055;-74
2021/10/03 12:03:51;;;;;;;5.85;5.35;;;18.10;99.90;;;;;;5076502;28;20063;-73
2021/10/03 12:06:34;;;;;;;5.55;5.22;;;18.30;99.90;;;;;;5075151;28;20552;-74
2021/10/03 12:09:16;;;;;;;7.72;7.13;;;18.10;99.90;;;;;;5076494;28;20492;-74
2021/10/03 12:11:51;;;;;;;7.80;7.20;;;18.10;99.90;;;;;;5076404;28;20048;-73
2021/10/03 12:14:18;;;;;;;5.68;5.20;;;18.10;99.90;;;;;;5076331;28;20023;-73
2021/10/03 12:16:56;;;;;;;5.70;5.30;;;18.10;99.90;;;;;;5076056;28;20094;-71
2021/10/03 12:19:28;;;;;;;6.78;6.28;;;18.10;99.90;;;;;;5074924;28;20024;-73
2021/10/03 12:22:05;;;;;;;6.20;5.80;;;18.10;99.90;;;;;;5076287;28;20046;-73
2021/10/03 12:24:32;;;;;;;6.82;6.22;;;18.10;99.90;;;;;;5075056;28;20060;-73
2021/10/03 12:26:59;;;;;;;6.38;5.90;;;18.00;99.90;;;;;;5076066;28;20078;-74
2021/10/03 12:29:27;;;;;;;6.40;6.00;;;17.90;99.90;;;;;;5075983;28;20024;-74
2021/10/03 12:32:08;;;;;;;9.90;6.00;;;17.90;99.90;;;;;;5074719;28;20115;-73
2021/10/03 12:34:42;;;;;;;7.05;6.35;;;17.90;99.90;;;;;;5075924;28;20103;-73
2021/10/03 12:37:15;;;;;;;7.38;6.20;;;18.00;99.90;;;;;;5075782;28;20055;-73
2021/10/03 12:39:51;;;;;;;6.80;6.30;;;17.90;99.90;;;;;;5074546;28;20028;-74
2021/10/03 12:42:30;;;;;;;6.80;6.38;;;17.90;99.90;;;;;;5076004;28;20378;-73
2021/10/03 12:45:00;;;;;;;6.68;6.22;;;17.90;99.90;;;;;;5075751;28;20024;-74
2021/10/03 12:47:27;;;;;;;6.45;5.90;;;17.90;99.90;;;;;;5075799;28;20370;-74
2021/10/03 12:49:55;;;;;;;6.05;5.65;;;17.90;99.90;;;;;;5075671;28;20020;-73
2021/10/03 12:52:22;;;;;;;6.30;5.90;;;17.80;99.90;;;;;;5074335;28;20078;-73
2021/10/03 12:54:50;;;;;;;6.70;6.30;;;17.80;99.90;;;;;;5075815;28;20122;-73
2021/10/03 12:57:18;;;;;;;7.20;6.70;;;17.70;99.90;;;;;;5074229;28;20051;-74
2021/10/03 12:59:46;;;;;;;6.85;6.25;;;17.60;99.90;;;;;;5073018;28;20112;-73
2021/10/03 13:02:13;;;;;;;7.45;6.85;;;17.60;99.90;;;;;;5074210;28;20093;-73
2021/10/03 13:04:40;;;;;;;6.63;6.13;;;17.60;99.90;;;;;;5075395;28;20020;-73
2021/10/03 13:07:08;;;;;;;7.70;7.03;;;17.50;99.90;;;;;;5073940;28;20025;-73
2021/10/03 13:09:35;;;;;;;7.40;6.90;;;17.50;99.90;;;;;;5075332;28;20028;-73
2021/10/03 13:12:03;;;;;;;7.38;6.88;;;17.40;99.90;;;;;;5075277;28;20385;-74
2021/10/03 13:14:30;;;;;;;7.53;7.03;;;17.40;99.90;;;;;;5074101;28;20027;-73